WetterOnline ( https://www.wetteronline.de )

Wetter aktuell Krummhörn

Aktuelles Wetter: Emden (5m)

6-stündlich | Neueste Meldungen
Ortszeit Temperatur Wetter
Mo, 09.12. 19:00 6.6° C leicht bewölkt
Mo, 09.12. 13:00 7.0° C Sprühregen
Mo, 09.12. 7:00 6.6° C bedeckt
Mo, 09.12. 1:00 6.4° C fast wolkenlos
So, 08.12. 19:00 7.9° C leicht bewölkt
So, 08.12. 13:00 10.0° C bewölkt
So, 08.12. 7:00 8.9° C leichter Regen
So, 08.12. 1:00 8.2° C bedeckt
Ortszeit Temperatur Wetter
Mo, 09.12. 21:00 6.0° C leicht bewölkt
Mo, 09.12. 20:50 6.0° C leicht bewölkt
Mo, 09.12. 20:40 5.3° C bewölkt
Mo, 09.12. 20:30 6.3° C leichter Regen
Mo, 09.12. 20:20 6.3° C leichter Regen
Mo, 09.12. 20:10 6.5° C wolkenlos
Mo, 09.12. 20:00 6.2° C fast wolkenlos
Mo, 09.12. 19:30 6.7° C leicht bewölkt
Mo, 09.12. 19:00 6.6° C leicht bewölkt
Mo, 09.12. 18:30 6.4° C wolkenlos
Mo, 09.12. 18:00 6.3° C wolkig
Ortszeit Relative Feuchte Sichtweite
Mo, 09.12. 19:00 69% 29 km
Mo, 09.12. 13:00 85% 45 km
Mo, 09.12. 7:00 82% 35 km
Mo, 09.12. 1:00 86% 30 km
So, 08.12. 19:00 80% 25 km
So, 08.12. 13:00 83% >70 km
So, 08.12. 7:00 78% 40 km
So, 08.12. 1:00 79% 50 km
Ortszeit Relative Feuchte Sichtweite
Mo, 09.12. 21:00 69% 28 km
Mo, 09.12. 20:50 69% -
Mo, 09.12. 20:40 73% -
Mo, 09.12. 20:30 68% 28 km
Mo, 09.12. 20:20 68% -
Mo, 09.12. 20:10 65% -
Mo, 09.12. 20:00 64% 35 km
Mo, 09.12. 19:30 69% 23 km
Mo, 09.12. 19:00 69% 29 km
Mo, 09.12. 18:30 71% 35 km
Mo, 09.12. 18:00 72% 30 km
Ortszeit Niederschlagsmenge Niederschlagsart
Mo, 09.12. 19:00 2 l/m2 in 12 Std. Regen
Mo, 09.12. 13:00 0.1 l/m2 in 6 Std. Regen
Mo, 09.12. 7:00 2 l/m2 in 12 Std. Regen
Mo, 09.12. 1:00 2 l/m2 in 6 Std. Regen
So, 08.12. 19:00 4 l/m2 in 12 Std. Regen
So, 08.12. 13:00 3 l/m2 in 6 Std. Regen
So, 08.12. 7:00 0.1 l/m2 in 12 Std. Regen
So, 08.12. 1:00 0.0 l/m2 in 6 Std. -
Ortszeit Niederschlagsmenge Niederschlagsart
Mo, 09.12. 21:00 0.2 l/m2 in 1 Std. Regen, Niederschlag
Mo, 09.12. 20:50 keine Meldung -
Mo, 09.12. 20:40 keine Meldung -
Mo, 09.12. 20:30 0.1 l/m2 in 1 Std. -
Mo, 09.12. 20:20 keine Meldung -
Mo, 09.12. 20:10 keine Meldung -
Mo, 09.12. 20:00 0.1 l/m2 in 1 Std. Regen
Mo, 09.12. 19:30 0.1 l/m2 in 1 Std. Schneeregen
Mo, 09.12. 19:00 0.0 l/m2 in 1 Std. Regen
Mo, 09.12. 18:30 0.0 l/m2 in 1 Std. -
Mo, 09.12. 18:00 0.1 l/m2 in 1 Std. Regen
Ortszeit Stärke Spitze Richtung
km/h Bft. km/h Grad Sektor
Mo, 09.12. 19:00 24 4 61 320° NW
Mo, 09.12. 13:00 17 3 41 250° W
Mo, 09.12. 7:00 26 4 48 210° SW
Mo, 09.12. 1:00 19 3 54 210° SW
So, 08.12. 19:00 18 3 50 210° SW
So, 08.12. 13:00 24 4 65 240° SW
So, 08.12. 7:00 31 5 61 210° SW
So, 08.12. 1:00 24 4 39 200° S
Ortszeit Stärke Spitze Richtung
km/h Bft. km/h Grad Sektor
Mo, 09.12. 21:00 25 4 61 310° NW
Mo, 09.12. 20:50 25 4 - 310° NW
Mo, 09.12. 20:40 22 4 - 300° NW
Mo, 09.12. 20:30 29 5 54 300° NW
Mo, 09.12. 20:20 29 5 - 300° NW
Mo, 09.12. 20:10 28 4 - 310° NW
Mo, 09.12. 20:00 28 4 52 310° NW
Mo, 09.12. 19:30 29 5 47 310° NW
Mo, 09.12. 19:00 24 4 41 320° NW
Mo, 09.12. 18:30 26 4 41 320° NW
Mo, 09.12. 18:00 32 5 61 330° NW
Ortszeit Untergrenze Bedeckung Gattung
total tief tief mittel hoch
Mo, 09.12. 19:00 1050 m 1/8 3/8 - - -
Mo, 09.12. 13:00 390 m 8/8 7/8 - - -
Mo, 09.12. 7:00 540 m 8/8 8/8 - - -
Mo, 09.12. 1:00 960 m 1/8 1/8 - - -
So, 08.12. 19:00 1050 m 2/8 2/8 - - -
So, 08.12. 13:00 510 m 7/8 8/8 - - -
So, 08.12. 7:00 630 m 8/8 8/8 - - -
So, 08.12. 1:00 750 m 8/8 8/8 - - -
Ortszeit Bedeckungsgrad in Achtel und Wolkenuntergrenze
Mo, 09.12. 21:00 1(1020m) 3(2100m)
Mo, 09.12. 20:50 1(1020m) 2(1800m) 3(2100m)
Mo, 09.12. 20:40 2(990m) 4(1800m) 7(2100m)
Mo, 09.12. 20:30 1(930m) 3(1260m) 5(1800m)
Mo, 09.12. 20:20 1(930m) 3(1260m)
Mo, 09.12. 20:10 keine Wolken
Mo, 09.12. 20:00 1(1200m)
Mo, 09.12. 19:30 2(1020m) 3(1410m) 4(3300m)
Mo, 09.12. 19:00 1(1050m) 3(1350m)
Mo, 09.12. 18:30 keine Wolken
Mo, 09.12. 18:00 1(1320m) 5(1800m) 6(5700m)
Ortszeit Luftdruck NN (hPa) Tendenz (hPa in 3 Std.)
Mo, 09.12. 19:00 1008 + 6,6
Mo, 09.12. 13:00 996 + 2,3
Mo, 09.12. 7:00 992 - 0,3
Mo, 09.12. 1:00 992 0,0
So, 08.12. 19:00 994 - 0,9
So, 08.12. 13:00 994 - 0,9
So, 08.12. 7:00 998 - 4,3
So, 08.12. 1:00 1006 - 3,0
Ortszeit Luftdruck NN (hPa) Tendenz (hPa in 3 Std.)
Mo, 09.12. 21:00 1011 + 5,4
Mo, 09.12. 20:50 1011 keine Meldung
Mo, 09.12. 20:40 1011 keine Meldung
Mo, 09.12. 20:30 1011 + 5,9
Mo, 09.12. 20:20 1011 keine Meldung
Mo, 09.12. 20:10 1010 keine Meldung
Mo, 09.12. 20:00 1010 + 5,8
Mo, 09.12. 19:30 1009 + 6,2
Mo, 09.12. 19:00 1008 + 6,6
Mo, 09.12. 18:30 1007 + 6,7
Mo, 09.12. 18:00 1006 + 6,7
Ortszeit Schneehöhe (cm)
Mo, 09.12. 19:00 0
Mo, 09.12. 13:00 0
Mo, 09.12. 7:00 0
Mo, 09.12. 1:00 0
So, 08.12. 19:00 0
So, 08.12. 13:00 0
So, 08.12. 7:00 0
So, 08.12. 1:00 0
Ortszeit Schneehöhe (cm)
Mo, 09.12. 21:00 0
Mo, 09.12. 20:50 0
Mo, 09.12. 20:40 0
Mo, 09.12. 20:30 0
Mo, 09.12. 20:20 0
Mo, 09.12. 20:10 0
Mo, 09.12. 20:00 0
Mo, 09.12. 19:30 0
Mo, 09.12. 19:00 0
Mo, 09.12. 18:30 0
Mo, 09.12. 18:00 0
Link zu dieser Seite / Seite empfehlen

Das Wetter in ...